Ramón Villeda Morales International Airport
MHLM : now visible

Airfield :











YOU CAN JOIN US ON...

 
LOGIN :

Register | Disclaimer

   EN    FR    IT 

 









Legend :    VFR   Marginal VFR   IFR   Intensive IFR   Very Intensive IFR
Visi :
Ceiling :
>= 8 km
>= 3000ft
5 to 8 km
1000 to 3000 ft
1500m to 5 km
500 to 1000 ft
800 to 1500m
200 to 500 ft
< 800m
< 200 ft
Symbols :   Thunderstorms  Fog  Heavy snow  Heavy precipitations  Wind > 20 kt






- Airport Elevation : 91 ft
- IATA code : SAP


MHLM - Ramón Villeda Morales International

CURRENT METAR :
  • 212000Z 05018KT 9999 SCT026 BKN070 24/17 Q1019 A3009 NOSIG

EXPIRED METARs :
  • 211900Z 04018KT 9999 SCT026 BKN070 25/18 Q1020 A3012 NOSIG
  • 211800Z 02016KT 9999 SCT026 BKN070 25/18 Q1021 A3015 NOSIG

TAF TAF MHLM
Valid from the 21 at 18:00 until the 22 at 18:00 UTC


211640Z 2118/2218 35012KT 8000 VCSH FEW008 BKN024TCU OVC070 TX24/2119Z TN19/2212Z
BECMG 2120/2122 5000 RA
BECMG 2202/2204 33006KT 8000 VCSH BKN024TCU
BECMG 2213/2215 9999 NSW BKN026TCU



MET'MAP, your aeronautical weather chart ! - Copyright ORBIFLY December 2007 - Disclaimer

ORBIFLY MET'MAP TEAM :

Programming & Development : Alexandra Zaïnal
Concept & original design : Baudouin d'Aumeries
Assistance for programming : Marc-Olivier Méhu
Technical & hardware support : Manuel Goepfert

Contact : metmap@orbifly.com




SOURCES & CREDITS :

   NOAA       Earth
Advisory